sensor_id;sensor_type;location;lat;lon;timestamp;noise_LAeq;noise_LA_min;noise_LA_max;noise_LA01;noise_LA95
67322;Laerm;57666;51.436;5.978;2023-04-01T00:00:05;47.16;44.67;51.24;;
67322;Laerm;57666;51.436;5.978;2023-04-01T00:00:15;47.35;43.82;54.37;;
67322;Laerm;57666;51.436;5.978;2023-04-01T00:00:26;47.79;44.07;52.15;;
67322;Laerm;57666;51.436;5.978;2023-04-01T00:00:36;49.16;44.01;59.71;;
67322;Laerm;57666;51.436;5.978;2023-04-01T00:00:50;47.85;43.69;56.00;;
67322;Laerm;57666;51.436;5.978;2023-04-01T00:01:02;48.21;44.08;66.41;;
67322;Laerm;57666;51.436;5.978;2023-04-01T00:01:13;48.36;44.35;55.52;;
67322;Laerm;57666;51.436;5.978;2023-04-01T00:01:24;48.36;44.74;56.00;;
67322;Laerm;57666;51.436;5.978;2023-04-01T00:01:34;47.50;44.33;51.97;;
67322;Laerm;57666;51.436;5.978;2023-04-01T00:01:45;48.20;45.05;61.20;;
67322;Laerm;57666;51.436;5.978;2023-04-01T00:01:55;47.99;45.04;54.04;;
67322;Laerm;57666;51.436;5.978;2023-04-01T00:02:08;48.79;45.14;59.11;;
67322;Laerm;57666;51.436;5.978;2023-04-01T00:02:19;48.23;44.44;55.32;;
67322;Laerm;57666;51.436;5.978;2023-04-01T00:02:29;48.54;44.73;51.60;;
67322;Laerm;57666;51.436;5.978;2023-04-01T00:02:40;48.88;45.91;59.35;;
67322;Laerm;57666;51.436;5.978;2023-04-01T00:02:51;50.46;46.20;58.33;;
67322;Laerm;57666;51.436;5.978;2023-04-01T00:03:02;50.62;46.17;66.11;;
67322;Laerm;57666;51.436;5.978;2023-04-01T00:03:12;48.48;45.52;56.37;;
67322;Laerm;57666;51.436;5.978;2023-04-01T00:03:26;49.43;44.34;69.45;;
67322;Laerm;57666;51.436;5.978;2023-04-01T00:03:37;49.92;44.97;68.91;;
67322;Laerm;57666;51.436;5.978;2023-04-01T00:03:47;48.38;44.71;56.62;;
67322;Laerm;57666;51.436;5.978;2023-04-01T00:03:58;48.09;44.93;55.22;;
67322;Laerm;57666;51.436;5.978;2023-04-01T00:04:09;47.96;44.62;52.48;;
67322;Laerm;57666;51.436;5.978;2023-04-01T00:04:19;48.26;43.87;52.06;;
67322;Laerm;57666;51.436;5.978;2023-04-01T00:04:30;46.94;43.89;51.04;;
67322;Laerm;57666;51.436;5.978;2023-04-01T00:04:41;46.64;43.50;51.58;;
67322;Laerm;57666;51.436;5.978;2023-04-01T00:04:51;47.20;44.18;51.75;;
67322;Laerm;57666;51.436;5.978;2023-04-01T00:05:01;46.48;43.67;48.98;;
67322;Laerm;57666;51.436;5.978;2023-04-01T00:05:12;47.74;44.63;55.39;;
67322;Laerm;57666;51.436;5.978;2023-04-01T00:05:22;46.70;43.94;52.08;;
67322;Laerm;57666;51.436;5.978;2023-04-01T00:05:34;47.67;43.63;52.77;;
67322;Laerm;57666;51.436;5.978;2023-04-01T00:05:45;46.21;43.70;51.76;;
67322;Laerm;57666;51.436;5.978;2023-04-01T00:05:56;47.45;44.66;54.37;;
67322;Laerm;57666;51.436;5.978;2023-04-01T00:06:07;47.39;44.59;52.31;;
67322;Laerm;57666;51.436;5.978;2023-04-01T00:06:18;46.60;43.81;51.22;;
67322;Laerm;57666;51.436;5.978;2023-04-01T00:06:28;48.23;45.30;57.94;;
67322;Laerm;57666;51.436;5.978;2023-04-01T00:06:39;46.67;43.22;50.81;;
67322;Laerm;57666;51.436;5.978;2023-04-01T00:06:50;46.62;43.83;52.26;;
67322;Laerm;57666;51.436;5.978;2023-04-01T00:07:01;47.03;44.38;49.93;;
67322;Laerm;57666;51.436;5.978;2023-04-01T00:07:12;47.56;44.78;54.40;;
67322;Laerm;57666;51.436;5.978;2023-04-01T00:07:22;46.91;44.10;49.95;;
67322;Laerm;57666;51.436;5.978;2023-04-01T00:07:32;47.55;43.96;56.11;;
67322;Laerm;57666;51.436;5.978;2023-04-01T00:07:43;46.66;43.43;53.64;;
67322;Laerm;57666;51.436;5.978;2023-04-01T00:07:53;48.34;44.38;52.67;;
67322;Laerm;57666;51.436;5.978;2023-04-01T00:08:04;52.30;43.50;64.94;;
67322;Laerm;57666;51.436;5.978;2023-04-01T00:08:15;53.51;44.26;69.59;;
67322;Laerm;57666;51.436;5.978;2023-04-01T00:08:26;55.50;46.41;68.12;;
67322;Laerm;57666;51.436;5.978;2023-04-01T00:08:36;59.15;46.35;73.67;;
67322;Laerm;57666;51.436;5.978;2023-04-01T00:08:47;59.78;46.34;75.02;;
67322;Laerm;57666;51.436;5.978;2023-04-01T00:08:57;63.47;48.72;69.63;;
67322;Laerm;57666;51.436;5.978;2023-04-01T00:09:10;70.42;67.28;76.00;;
67322;Laerm;57666;51.436;5.978;2023-04-01T00:09:20;71.74;61.28;79.13;;
67322;Laerm;57666;51.436;5.978;2023-04-01T00:09:31;58.38;50.84;66.22;;
67322;Laerm;57666;51.436;5.978;2023-04-01T00:09:41;56.86;46.90;71.77;;
67322;Laerm;57666;51.436;5.978;2023-04-01T00:09:51;50.76;46.35;61.62;;
67322;Laerm;57666;51.436;5.978;2023-04-01T00:10:03;49.63;44.81;63.38;;
67322;Laerm;57666;51.436;5.978;2023-04-01T00:10:13;48.13;44.35;60.55;;
67322;Laerm;57666;51.436;5.978;2023-04-01T00:10:24;47.22;44.37;53.88;;
67322;Laerm;57666;51.436;5.978;2023-04-01T00:10:34;50.71;44.97;64.59;;
67322;Laerm;57666;51.436;5.978;2023-04-01T00:10:45;53.25;47.99;73.42;;
67322;Laerm;57666;51.436;5.978;2023-04-01T00:10:55;48.01;45.62;50.46;;
67322;Laerm;57666;51.436;5.978;2023-04-01T00:11:09;51.89;45.79;69.28;;
67322;Laerm;57666;51.436;5.978;2023-04-01T00:11:19;47.89;43.11;54.71;;
67322;Laerm;57666;51.436;5.978;2023-04-01T00:11:30;50.16;45.07;70.08;;
67322;Laerm;57666;51.436;5.978;2023-04-01T00:11:40;47.61;44.93;52.80;;
67322;Laerm;57666;51.436;5.978;2023-04-01T00:11:51;48.17;44.27;53.35;;
67322;Laerm;57666;51.436;5.978;2023-04-01T00:12:01;47.83;44.14;54.53;;
67322;Laerm;57666;51.436;5.978;2023-04-01T00:12:11;48.01;44.21;52.29;;
67322;Laerm;57666;51.436;5.978;2023-04-01T00:12:21;48.09;44.32;51.44;;
67322;Laerm;57666;51.436;5.978;2023-04-01T00:12:32;47.01;44.71;50.34;;
67322;Laerm;57666;51.436;5.978;2023-04-01T00:12:43;47.84;44.52;57.27;;
67322;Laerm;57666;51.436;5.978;2023-04-01T00:12:53;53.03;46.36;60.91;;
67322;Laerm;57666;51.436;5.978;2023-04-01T00:13:04;63.60;59.82;66.92;;
67322;Laerm;57666;51.436;5.978;2023-04-01T00:13:14;63.37;60.67;66.62;;
67322;Laerm;57666;51.436;5.978;2023-04-01T00:13:25;58.99;46.18;67.25;;
67322;Laerm;57666;51.436;5.978;2023-04-01T00:13:36;46.56;44.27;49.27;;
67322;Laerm;57666;51.436;5.978;2023-04-01T00:13:47;45.71;43.64;47.93;;
67322;Laerm;57666;51.436;5.978;2023-04-01T00:13:57;47.27;43.40;54.11;;
67322;Laerm;57666;51.436;5.978;2023-04-01T00:14:07;48.05;43.98;57.96;;
67322;Laerm;57666;51.436;5.978;2023-04-01T00:14:18;62.37;47.08;67.37;;
67322;Laerm;57666;51.436;5.978;2023-04-01T00:14:28;64.15;61.46;66.66;;
67322;Laerm;57666;51.436;5.978;2023-04-01T00:14:39;63.83;55.14;69.15;;
67322;Laerm;57666;51.436;5.978;2023-04-01T00:14:50;54.19;50.26;57.81;;
67322;Laerm;57666;51.436;5.978;2023-04-01T00:15:00;50.82;47.22;58.03;;
67322;Laerm;57666;51.436;5.978;2023-04-01T00:15:11;54.03;48.54;62.79;;
67322;Laerm;57666;51.436;5.978;2023-04-01T00:15:21;53.48;47.27;64.17;;
67322;Laerm;57666;51.436;5.978;2023-04-01T00:15:35;48.85;46.48;51.28;;
67322;Laerm;57666;51.436;5.978;2023-04-01T00:15:46;47.89;44.49;56.33;;
67322;Laerm;57666;51.436;5.978;2023-04-01T00:15:56;48.26;44.66;55.69;;
67322;Laerm;57666;51.436;5.978;2023-04-01T00:16:07;47.92;45.19;53.77;;
67322;Laerm;57666;51.436;5.978;2023-04-01T00:16:17;47.57;44.00;53.03;;
67322;Laerm;57666;51.436;5.978;2023-04-01T00:16:28;48.66;44.18;56.93;;
67322;Laerm;57666;51.436;5.978;2023-04-01T00:16:39;47.14;42.86;51.07;;
67322;Laerm;57666;51.436;5.978;2023-04-01T00:16:49;47.77;43.28;54.04;;
67322;Laerm;57666;51.436;5.978;2023-04-01T00:16:59;47.71;45.07;52.83;;
67322;Laerm;57666;51.436;5.978;2023-04-01T00:17:10;48.08;44.83;54.89;;
67322;Laerm;57666;51.436;5.978;2023-04-01T00:17:20;46.79;43.54;52.96;;
67322;Laerm;57666;51.436;5.978;2023-04-01T00:17:31;50.74;43.88;63.96;;
67322;Laerm;57666;51.436;5.978;2023-04-01T00:17:43;47.80;44.60;52.35;;
67322;Laerm;57666;51.436;5.978;2023-04-01T00:17:53;46.20;44.09;51.13;;
67322;Laerm;57666;51.436;5.978;2023-04-01T00:18:04;47.19;44.08;54.39;;
67322;Laerm;57666;51.436;5.978;2023-04-01T00:18:15;46.85;43.27;51.06;;
67322;Laerm;57666;51.436;5.978;2023-04-01T00:18:25;46.34;43.46;49.78;;
67322;Laerm;57666;51.436;5.978;2023-04-01T00:18:35;47.68;44.10;51.30;;
67322;Laerm;57666;51.436;5.978;2023-04-01T00:18:46;48.43;44.68;61.76;;
67322;Laerm;57666;51.436;5.978;2023-04-01T00:18:57;55.24;44.61;67.98;;
67322;Laerm;57666;51.436;5.978;2023-04-01T00:19:09;47.74;44.17;53.71;;
67322;Laerm;57666;51.436;5.978;2023-04-01T00:19:20;45.93;43.85;48.15;;
67322;Laerm;57666;51.436;5.978;2023-04-01T00:19:30;46.38;43.83;50.24;;
67322;Laerm;57666;51.436;5.978;2023-04-01T00:19:42;46.68;43.57;50.56;;
67322;Laerm;57666;51.436;5.978;2023-04-01T00:19:54;46.02;42.93;52.66;;
67322;Laerm;57666;51.436;5.978;2023-04-01T00:20:05;47.82;45.31;57.89;;
67322;Laerm;57666;51.436;5.978;2023-04-01T00:20:17;46.84;43.67;50.15;;
67322;Laerm;57666;51.436;5.978;2023-04-01T00:20:29;47.00;43.37;57.03;;
67322;Laerm;57666;51.436;5.978;2023-04-01T00:20:44;50.21;42.99;59.88;;
67322;Laerm;57666;51.436;5.978;2023-04-01T00:20:54;47.25;43.85;55.64;;
67322;Laerm;57666;51.436;5.978;2023-04-01T00:21:04;46.71;44.02;51.08;;
67322;Laerm;57666;51.436;5.978;2023-04-01T00:21:15;47.16;44.46;56.59;;
67322;Laerm;57666;51.436;5.978;2023-04-01T00:21:26;48.02;44.45;53.18;;
67322;Laerm;57666;51.436;5.978;2023-04-01T00:21:36;51.75;44.70;61.12;;
67322;Laerm;57666;51.436;5.978;2023-04-01T00:21:46;49.36;45.07;55.84;;
67322;Laerm;57666;51.436;5.978;2023-04-01T00:22:00;48.12;44.39;53.66;;
67322;Laerm;57666;51.436;5.978;2023-04-01T00:22:10;47.61;44.17;51.01;;
67322;Laerm;57666;51.436;5.978;2023-04-01T00:22:21;47.30;44.21;52.30;;
67322;Laerm;57666;51.436;5.978;2023-04-01T00:22:32;47.57;44.06;56.39;;
67322;Laerm;57666;51.436;5.978;2023-04-01T00:22:43;48.68;44.87;52.97;;
67322;Laerm;57666;51.436;5.978;2023-04-01T00:22:54;62.03;49.61;71.44;;
67322;Laerm;57666;51.436;5.978;2023-04-01T00:23:05;65.15;61.41;69.85;;
67322;Laerm;57666;51.436;5.978;2023-04-01T00:23:16;61.98;59.87;65.65;;
67322;Laerm;57666;51.436;5.978;2023-04-01T00:23:26;56.51;46.19;63.20;;
67322;Laerm;57666;51.436;5.978;2023-04-01T00:23:36;46.58;43.62;54.76;;
67322;Laerm;57666;51.436;5.978;2023-04-01T00:23:47;47.12;43.97;52.69;;
67322;Laerm;57666;51.436;5.978;2023-04-01T00:23:58;47.01;43.18;52.68;;
67322;Laerm;57666;51.436;5.978;2023-04-01T00:24:09;47.45;42.57;62.84;;
67322;Laerm;57666;51.436;5.978;2023-04-01T00:24:19;46.07;43.43;50.04;;
67322;Laerm;57666;51.436;5.978;2023-04-01T00:24:30;47.32;42.67;50.59;;
67322;Laerm;57666;51.436;5.978;2023-04-01T00:24:40;49.91;43.92;65.21;;
67322;Laerm;57666;51.436;5.978;2023-04-01T00:24:51;48.67;44.18;59.56;;
67322;Laerm;57666;51.436;5.978;2023-04-01T00:25:02;48.88;45.57;57.02;;
67322;Laerm;57666;51.436;5.978;2023-04-01T00:25:13;47.14;44.17;49.93;;
67322;Laerm;57666;51.436;5.978;2023-04-01T00:25:23;49.75;44.10;64.28;;
67322;Laerm;57666;51.436;5.978;2023-04-01T00:25:34;48.24;45.45;55.07;;
67322;Laerm;57666;51.436;5.978;2023-04-01T00:25:44;48.57;45.14;55.51;;
67322;Laerm;57666;51.436;5.978;2023-04-01T00:25:55;47.68;44.34;51.36;;
67322;Laerm;57666;51.436;5.978;2023-04-01T00:26:05;48.90;45.64;51.77;;
67322;Laerm;57666;51.436;5.978;2023-04-01T00:26:16;48.02;44.22;53.17;;
67322;Laerm;57666;51.436;5.978;2023-04-01T00:26:29;49.40;45.03;57.42;;
67322;Laerm;57666;51.436;5.978;2023-04-01T00:26:39;49.21;44.36;58.09;;
67322;Laerm;57666;51.436;5.978;2023-04-01T00:26:52;46.97;43.72;54.05;;
67322;Laerm;57666;51.436;5.978;2023-04-01T00:27:02;48.25;45.16;52.80;;
67322;Laerm;57666;51.436;5.978;2023-04-01T00:27:13;47.51;43.68;52.45;;
67322;Laerm;57666;51.436;5.978;2023-04-01T00:27:23;47.36;44.06;55.27;;
67322;Laerm;57666;51.436;5.978;2023-04-01T00:27:33;48.66;45.09;52.45;;
67322;Laerm;57666;51.436;5.978;2023-04-01T00:27:44;57.30;48.68;64.08;;
67322;Laerm;57666;51.436;5.978;2023-04-01T00:27:54;65.40;62.10;69.02;;
67322;Laerm;57666;51.436;5.978;2023-04-01T00:28:05;66.95;63.82;70.63;;
67322;Laerm;57666;51.436;5.978;2023-04-01T00:28:16;59.11;47.76;67.55;;
67322;Laerm;57666;51.436;5.978;2023-04-01T00:28:27;47.75;44.45;51.56;;
67322;Laerm;57666;51.436;5.978;2023-04-01T00:28:37;48.02;44.45;59.00;;
67322;Laerm;57666;51.436;5.978;2023-04-01T00:28:50;47.31;44.12;53.24;;
67322;Laerm;57666;51.436;5.978;2023-04-01T00:29:01;47.65;42.68;56.25;;
67322;Laerm;57666;51.436;5.978;2023-04-01T00:29:11;47.77;45.19;53.79;;
67322;Laerm;57666;51.436;5.978;2023-04-01T00:29:22;46.91;44.37;50.06;;
67322;Laerm;57666;51.436;5.978;2023-04-01T00:29:34;47.66;43.52;52.22;;
67322;Laerm;57666;51.436;5.978;2023-04-01T00:29:45;47.83;44.26;52.97;;
67322;Laerm;57666;51.436;5.978;2023-04-01T00:29:55;49.32;46.85;53.51;;
67322;Laerm;57666;51.436;5.978;2023-04-01T00:30:06;51.01;47.03;55.33;;
67322;Laerm;57666;51.436;5.978;2023-04-01T00:30:17;53.81;47.30;63.49;;
67322;Laerm;57666;51.436;5.978;2023-04-01T00:30:28;48.29;46.00;51.61;;
67322;Laerm;57666;51.436;5.978;2023-04-01T00:30:38;48.37;45.52;53.54;;
67322;Laerm;57666;51.436;5.978;2023-04-01T00:30:48;48.34;45.54;57.40;;
67322;Laerm;57666;51.436;5.978;2023-04-01T00:30:59;47.75;44.85;55.51;;
67322;Laerm;57666;51.436;5.978;2023-04-01T00:31:13;49.68;45.39;56.79;;
67322;Laerm;57666;51.436;5.978;2023-04-01T00:31:24;51.24;47.03;60.06;;
67322;Laerm;57666;51.436;5.978;2023-04-01T00:31:35;59.96;53.24;63.20;;
67322;Laerm;57666;51.436;5.978;2023-04-01T00:31:45;63.61;60.58;66.73;;
67322;Laerm;57666;51.436;5.978;2023-04-01T00:31:56;59.43;49.67;64.08;;
67322;Laerm;57666;51.436;5.978;2023-04-01T00:32:07;48.73;46.53;52.29;;
67322;Laerm;57666;51.436;5.978;2023-04-01T00:32:17;47.79;45.51;51.28;;
67322;Laerm;57666;51.436;5.978;2023-04-01T00:32:28;47.84;45.37;50.94;;
67322;Laerm;57666;51.436;5.978;2023-04-01T00:32:38;47.86;45.43;52.53;;
67322;Laerm;57666;51.436;5.978;2023-04-01T00:32:52;46.75;44.17;53.02;;
67322;Laerm;57666;51.436;5.978;2023-04-01T00:33:03;48.39;44.55;54.43;;
67322;Laerm;57666;51.436;5.978;2023-04-01T00:33:13;48.82;45.54;57.91;;
67322;Laerm;57666;51.436;5.978;2023-04-01T00:33:25;47.21;43.72;52.43;;
67322;Laerm;57666;51.436;5.978;2023-04-01T00:33:35;47.34;43.05;50.72;;
67322;Laerm;57666;51.436;5.978;2023-04-01T00:33:45;47.71;44.88;52.06;;
67322;Laerm;57666;51.436;5.978;2023-04-01T00:33:56;50.64;45.57;64.22;;
67322;Laerm;57666;51.436;5.978;2023-04-01T00:34:09;47.61;44.80;52.03;;
67322;Laerm;57666;51.436;5.978;2023-04-01T00:34:19;48.06;44.34;61.14;;
67322;Laerm;57666;51.436;5.978;2023-04-01T00:34:30;47.77;45.05;50.56;;
67322;Laerm;57666;51.436;5.978;2023-04-01T00:34:41;48.22;45.30;53.45;;
67322;Laerm;57666;51.436;5.978;2023-04-01T00:34:51;50.76;45.44;63.00;;
67322;Laerm;57666;51.436;5.978;2023-04-01T00:35:02;47.35;44.80;51.30;;
67322;Laerm;57666;51.436;5.978;2023-04-01T00:35:13;46.42;42.97;48.73;;
67322;Laerm;57666;51.436;5.978;2023-04-01T00:35:24;47.60;43.18;51.37;;
67322;Laerm;57666;51.436;5.978;2023-04-01T00:35:34;47.40;44.11;52.36;;
67322;Laerm;57666;51.436;5.978;2023-04-01T00:35:45;47.20;44.36;51.83;;
67322;Laerm;57666;51.436;5.978;2023-04-01T00:35:55;47.86;45.15;51.86;;
67322;Laerm;57666;51.436;5.978;2023-04-01T00:36:12;49.06;45.76;55.26;;
67322;Laerm;57666;51.436;5.978;2023-04-01T00:36:23;56.47;45.90;65.57;;
67322;Laerm;57666;51.436;5.978;2023-04-01T00:36:34;65.82;63.25;68.22;;
67322;Laerm;57666;51.436;5.978;2023-04-01T00:36:44;65.01;53.07;68.92;;
67322;Laerm;57666;51.436;5.978;2023-04-01T00:36:54;50.29;47.55;55.94;;
67322;Laerm;57666;51.436;5.978;2023-04-01T00:37:05;53.21;46.63;62.70;;
67322;Laerm;57666;51.436;5.978;2023-04-01T00:37:16;48.89;45.01;55.83;;
67322;Laerm;57666;51.436;5.978;2023-04-01T00:37:26;54.37;45.83;66.70;;
67322;Laerm;57666;51.436;5.978;2023-04-01T00:37:37;52.99;47.06;64.29;;
67322;Laerm;57666;51.436;5.978;2023-04-01T00:37:47;49.04;45.46;54.40;;
67322;Laerm;57666;51.436;5.978;2023-04-01T00:38:01;47.90;44.02;56.43;;
67322;Laerm;57666;51.436;5.978;2023-04-01T00:38:12;46.88;43.84;51.08;;
67322;Laerm;57666;51.436;5.978;2023-04-01T00:38:22;47.85;43.25;54.60;;
67322;Laerm;57666;51.436;5.978;2023-04-01T00:38:33;47.64;44.22;56.51;;
67322;Laerm;57666;51.436;5.978;2023-04-01T00:38:43;49.16;45.92;56.02;;
67322;Laerm;57666;51.436;5.978;2023-04-01T00:38:53;48.15;44.22;53.03;;
67322;Laerm;57666;51.436;5.978;2023-04-01T00:39:04;50.27;45.88;62.14;;
67322;Laerm;57666;51.436;5.978;2023-04-01T00:39:14;48.01;44.33;54.29;;
67322;Laerm;57666;51.436;5.978;2023-04-01T00:39:25;46.68;43.44;50.93;;
67322;Laerm;57666;51.436;5.978;2023-04-01T00:39:36;47.72;43.83;56.92;;
67322;Laerm;57666;51.436;5.978;2023-04-01T00:39:46;47.74;44.56;52.46;;
67322;Laerm;57666;51.436;5.978;2023-04-01T00:39:57;48.11;44.23;57.63;;
67322;Laerm;57666;51.436;5.978;2023-04-01T00:40:08;47.64;44.69;52.21;;
67322;Laerm;57666;51.436;5.978;2023-04-01T00:40:29;48.29;44.90;57.49;;
67322;Laerm;57666;51.436;5.978;2023-04-01T00:40:44;50.88;45.62;67.80;;
67322;Laerm;57666;51.436;5.978;2023-04-01T00:40:56;48.54;44.85;58.76;;
67322;Laerm;57666;51.436;5.978;2023-04-01T00:41:08;47.25;44.54;50.50;;
67322;Laerm;57666;51.436;5.978;2023-04-01T00:41:19;47.32;43.44;60.64;;
67322;Laerm;57666;51.436;5.978;2023-04-01T00:41:31;47.64;44.35;54.92;;
67322;Laerm;57666;51.436;5.978;2023-04-01T00:41:41;47.77;44.81;51.60;;
67322;Laerm;57666;51.436;5.978;2023-04-01T00:41:51;46.94;44.19;50.36;;
67322;Laerm;57666;51.436;5.978;2023-04-01T00:42:02;47.60;43.74;52.15;;
67322;Laerm;57666;51.436;5.978;2023-04-01T00:42:13;46.92;43.64;52.00;;
67322;Laerm;57666;51.436;5.978;2023-04-01T00:42:24;46.89;44.28;54.32;;
67322;Laerm;57666;51.436;5.978;2023-04-01T00:42:35;47.59;44.54;51.12;;
67322;Laerm;57666;51.436;5.978;2023-04-01T00:42:46;47.30;44.61;52.31;;
67322;Laerm;57666;51.436;5.978;2023-04-01T00:42:56;47.61;44.75;51.25;;
67322;Laerm;57666;51.436;5.978;2023-04-01T00:43:14;47.90;45.06;57.98;;
67322;Laerm;57666;51.436;5.978;2023-04-01T00:43:24;47.33;43.66;52.87;;
67322;Laerm;57666;51.436;5.978;2023-04-01T00:43:35;48.54;44.82;57.15;;
67322;Laerm;57666;51.436;5.978;2023-04-01T00:43:46;47.26;44.04;49.91;;
67322;Laerm;57666;51.436;5.978;2023-04-01T00:44:16;47.69;42.83;60.03;;
67322;Laerm;57666;51.436;5.978;2023-04-01T00:44:30;48.72;44.23;61.64;;
67322;Laerm;57666;51.436;5.978;2023-04-01T00:44:41;47.98;45.15;51.91;;
67322;Laerm;57666;51.436;5.978;2023-04-01T00:44:52;49.23;45.46;56.16;;
67322;Laerm;57666;51.436;5.978;2023-04-01T00:45:34;48.95;45.61;56.46;;
67322;Laerm;57666;51.436;5.978;2023-04-01T00:45:45;48.77;45.57;56.28;;
67322;Laerm;57666;51.436;5.978;2023-04-01T00:45:56;49.30;47.36;52.38;;
67322;Laerm;57666;51.436;5.978;2023-04-01T00:46:07;48.46;45.16;54.47;;
67322;Laerm;57666;51.436;5.978;2023-04-01T00:46:18;48.94;45.29;55.61;;
67322;Laerm;57666;51.436;5.978;2023-04-01T00:46:28;50.35;45.50;57.25;;
67322;Laerm;57666;51.436;5.978;2023-04-01T00:46:39;49.55;46.07;55.46;;
67322;Laerm;57666;51.436;5.978;2023-04-01T00:46:49;49.46;44.72;60.52;;
67322;Laerm;57666;51.436;5.978;2023-04-01T00:47:00;48.11;44.87;60.86;;
67322;Laerm;57666;51.436;5.978;2023-04-01T00:47:10;47.06;44.47;50.50;;
67322;Laerm;57666;51.436;5.978;2023-04-01T00:47:21;49.40;44.28;58.58;;
67322;Laerm;57666;51.436;5.978;2023-04-01T00:47:32;49.56;44.93;57.78;;
67322;Laerm;57666;51.436;5.978;2023-04-01T00:47:42;49.76;45.91;56.43;;
67322;Laerm;57666;51.436;5.978;2023-04-01T00:47:53;49.86;44.54;59.91;;
67322;Laerm;57666;51.436;5.978;2023-04-01T00:48:21;47.14;44.18;51.10;;
67322;Laerm;57666;51.436;5.978;2023-04-01T00:48:36;48.96;44.68;55.18;;
67322;Laerm;57666;51.436;5.978;2023-04-01T00:48:49;47.51;42.08;56.36;;
67322;Laerm;57666;51.436;5.978;2023-04-01T00:49:01;48.52;44.48;57.72;;
67322;Laerm;57666;51.436;5.978;2023-04-01T00:49:12;46.48;42.96;52.27;;
67322;Laerm;57666;51.436;5.978;2023-04-01T00:49:23;47.80;44.99;50.55;;
67322;Laerm;57666;51.436;5.978;2023-04-01T00:49:39;46.68;44.09;50.18;;
67322;Laerm;57666;51.436;5.978;2023-04-01T00:49:51;47.34;44.56;52.59;;
67322;Laerm;57666;51.436;5.978;2023-04-01T00:50:03;47.38;44.45;52.97;;
67322;Laerm;57666;51.436;5.978;2023-04-01T00:50:13;49.35;44.33;62.97;;
67322;Laerm;57666;51.436;5.978;2023-04-01T00:50:24;46.37;43.57;50.82;;
67322;Laerm;57666;51.436;5.978;2023-04-01T00:50:35;48.20;44.95;53.18;;
67322;Laerm;57666;51.436;5.978;2023-04-01T00:50:48;48.67;44.50;54.97;;
67322;Laerm;57666;51.436;5.978;2023-04-01T00:51:02;49.57;44.25;57.38;;
67322;Laerm;57666;51.436;5.978;2023-04-01T00:51:19;48.97;45.01;55.88;;
67322;Laerm;57666;51.436;5.978;2023-04-01T00:51:30;47.27;44.13;54.29;;
67322;Laerm;57666;51.436;5.978;2023-04-01T00:51:40;46.59;43.50;50.74;;
67322;Laerm;57666;51.436;5.978;2023-04-01T00:51:53;47.75;43.44;53.89;;
67322;Laerm;57666;51.436;5.978;2023-04-01T00:52:04;46.53;42.65;57.00;;
67322;Laerm;57666;51.436;5.978;2023-04-01T00:52:18;46.37;43.72;49.78;;
67322;Laerm;57666;51.436;5.978;2023-04-01T00:52:30;48.41;42.87;61.14;;
67322;Laerm;57666;51.436;5.978;2023-04-01T00:52:41;53.77;44.17;70.44;;
67322;Laerm;57666;51.436;5.978;2023-04-01T00:52:52;47.35;44.15;51.49;;
67322;Laerm;57666;51.436;5.978;2023-04-01T00:53:03;47.87;43.77;56.14;;
67322;Laerm;57666;51.436;5.978;2023-04-01T00:53:16;48.71;45.74;53.26;;
67322;Laerm;57666;51.436;5.978;2023-04-01T00:53:28;49.78;45.75;58.39;;
67322;Laerm;57666;51.436;5.978;2023-04-01T00:53:41;47.36;44.62;50.95;;
67322;Laerm;57666;51.436;5.978;2023-04-01T00:53:53;47.46;44.61;50.93;;
67322;Laerm;57666;51.436;5.978;2023-04-01T00:54:04;47.02;44.21;56.09;;
67322;Laerm;57666;51.436;5.978;2023-04-01T00:54:15;51.37;45.36;62.53;;
67322;Laerm;57666;51.436;5.978;2023-04-01T00:54:26;51.39;45.41;61.24;;
67322;Laerm;57666;51.436;5.978;2023-04-01T00:54:38;49.71;44.28;56.75;;
67322;Laerm;57666;51.436;5.978;2023-04-01T00:54:53;48.24;45.08;53.29;;
67322;Laerm;57666;51.436;5.978;2023-04-01T00:55:05;47.56;44.06;52.55;;
67322;Laerm;57666;51.436;5.978;2023-04-01T00:55:17;47.61;44.70;49.95;;
67322;Laerm;57666;51.436;5.978;2023-04-01T00:55:30;48.47;45.79;54.24;;
67322;Laerm;57666;51.436;5.978;2023-04-01T00:55:43;55.44;45.86;69.42;;
67322;Laerm;57666;51.436;5.978;2023-04-01T00:56:01;51.36;45.62;64.74;;
67322;Laerm;57666;51.436;5.978;2023-04-01T00:56:14;47.80;44.73;53.34;;
67322;Laerm;57666;51.436;5.978;2023-04-01T00:56:27;50.28;45.74;57.64;;
67322;Laerm;57666;51.436;5.978;2023-04-01T00:56:41;52.88;47.08;62.35;;
67322;Laerm;57666;51.436;5.978;2023-04-01T00:57:29;66.04;53.98;72.10;;
67322;Laerm;57666;51.436;5.978;2023-04-01T00:57:32;61.99;44.77;70.30;;
67322;Laerm;57666;51.436;5.978;2023-04-01T00:57:45;48.03;44.50;55.05;;
67322;Laerm;57666;51.436;5.978;2023-04-01T00:57:58;47.02;43.61;53.70;;
67322;Laerm;57666;51.436;5.978;2023-04-01T00:58:11;48.13;43.14;54.17;;
67322;Laerm;57666;51.436;5.978;2023-04-01T00:58:24;48.41;43.74;56.20;;
67322;Laerm;57666;51.436;5.978;2023-04-01T00:58:37;54.41;44.97;68.31;;
67322;Laerm;57666;51.436;5.978;2023-04-01T00:58:51;48.45;44.47;54.47;;
67322;Laerm;57666;51.436;5.978;2023-04-01T00:59:04;46.81;43.29;50.02;;
67322;Laerm;57666;51.436;5.978;2023-04-01T00:59:22;46.59;43.75;49.59;;
67322;Laerm;57666;51.436;5.978;2023-04-01T00:59:34;47.85;44.26;54.88;;
67322;Laerm;57666;51.436;5.978;2023-04-01T00:59:46;49.12;46.10;55.84;;
67322;Laerm;57666;51.436;5.978;2023-04-01T00:59:57;63.57;49.22;67.17;;
67322;Laerm;57666;51.436;5.978;2023-04-01T01:00:10;65.54;62.08;68.77;;
67322;Laerm;57666;51.436;5.978;2023-04-01T01:00:22;59.79;51.50;67.02;;
67322;Laerm;57666;51.436;5.978;2023-04-01T01:00:33;52.79;46.50;65.70;;
67322;Laerm;57666;51.436;5.978;2023-04-01T01:00:45;48.49;45.26;56.87;;
67322;Laerm;57666;51.436;5.978;2023-04-01T01:00:57;48.83;44.99;56.52;;
67322;Laerm;57666;51.436;5.978;2023-04-01T01:01:08;46.98;44.00;52.27;;
67322;Laerm;57666;51.436;5.978;2023-04-01T01:01:20;47.50;43.94;62.76;;
67322;Laerm;57666;51.436;5.978;2023-04-01T01:01:31;48.45;43.56;56.09;;
67322;Laerm;57666;51.436;5.978;2023-04-01T01:01:42;48.92;45.84;55.38;;
67322;Laerm;57666;51.436;5.978;2023-04-01T01:01:52;48.92;44.81;56.74;;
67322;Laerm;57666;51.436;5.978;2023-04-01T01:02:04;47.51;44.00;54.84;;
67322;Laerm;57666;51.436;5.978;2023-04-01T01:02:16;48.04;43.47;57.86;;
67322;Laerm;57666;51.436;5.978;2023-04-01T01:02:30;47.76;44.85;54.88;;
67322;Laerm;57666;51.436;5.978;2023-04-01T01:02:41;49.85;44.64;61.22;;
67322;Laerm;57666;51.436;5.978;2023-04-01T01:02:54;54.53;45.22;70.20;;
67322;Laerm;57666;51.436;5.978;2023-04-01T01:03:04;49.07;45.32;56.88;;
67322;Laerm;57666;51.436;5.978;2023-04-01T01:03:15;47.56;45.11;53.31;;
67322;Laerm;57666;51.436;5.978;2023-04-01T01:03:26;46.69;44.29;50.36;;
67322;Laerm;57666;51.436;5.978;2023-04-01T01:03:36;48.43;44.67;52.56;;
67322;Laerm;57666;51.436;5.978;2023-04-01T01:03:46;47.28;44.15;53.92;;
67322;Laerm;57666;51.436;5.978;2023-04-01T01:03:57;47.77;44.96;53.94;;
67322;Laerm;57666;51.436;5.978;2023-04-01T01:04:19;53.87;47.45;62.87;;
67322;Laerm;57666;51.436;5.978;2023-04-01T01:04:32;49.04;44.50;57.29;;
67322;Laerm;57666;51.436;5.978;2023-04-01T01:04:42;49.75;45.39;57.85;;